sensor_id;sensor_type;location;lat;lon;timestamp;P1;durP1;ratioP1;P2;durP2;ratioP2
55172;SDS011;41061;52.822;6.860;2024-03-02T00:00:00;4.65;;;2.90;;
55172;SDS011;41061;52.822;6.860;2024-03-02T00:02:34;4.55;;;2.63;;
55172;SDS011;41061;52.822;6.860;2024-03-02T00:05:00;3.60;;;2.65;;
55172;SDS011;41061;52.822;6.860;2024-03-02T00:07:26;5.35;;;2.63;;
55172;SDS011;41061;52.822;6.860;2024-03-02T00:09:53;4.03;;;2.60;;
55172;SDS011;41061;52.822;6.860;2024-03-02T00:12:19;6.00;;;2.97;;
55172;SDS011;41061;52.822;6.860;2024-03-02T00:14:46;5.22;;;3.10;;
55172;SDS011;41061;52.822;6.860;2024-03-02T00:17:24;5.85;;;3.25;;
55172;SDS011;41061;52.822;6.860;2024-03-02T00:19:51;5.20;;;2.80;;
55172;SDS011;41061;52.822;6.860;2024-03-02T00:22:17;4.50;;;2.97;;
55172;SDS011;41061;52.822;6.860;2024-03-02T00:24:44;4.30;;;2.60;;
55172;SDS011;41061;52.822;6.860;2024-03-02T00:27:10;5.10;;;2.45;;
55172;SDS011;41061;52.822;6.860;2024-03-02T00:29:39;6.18;;;3.08;;
55172;SDS011;41061;52.822;6.860;2024-03-02T00:32:10;4.07;;;2.92;;
55172;SDS011;41061;52.822;6.860;2024-03-02T00:34:38;4.43;;;2.92;;
55172;SDS011;41061;52.822;6.860;2024-03-02T00:37:04;4.43;;;2.65;;
55172;SDS011;41061;52.822;6.860;2024-03-02T00:39:30;3.78;;;3.13;;
55172;SDS011;41061;52.822;6.860;2024-03-02T00:41:57;4.90;;;2.83;;
55172;SDS011;41061;52.822;6.860;2024-03-02T00:44:24;5.85;;;3.28;;
55172;SDS011;41061;52.822;6.860;2024-03-02T00:46:59;4.30;;;2.90;;
55172;SDS011;41061;52.822;6.860;2024-03-02T00:49:25;6.10;;;3.42;;
55172;SDS011;41061;52.822;6.860;2024-03-02T00:51:53;4.78;;;2.72;;
55172;SDS011;41061;52.822;6.860;2024-03-02T00:54:20;5.00;;;3.38;;
55172;SDS011;41061;52.822;6.860;2024-03-02T00:56:48;5.30;;;3.60;;
55172;SDS011;41061;52.822;6.860;2024-03-02T00:59:14;5.32;;;3.88;;
55172;SDS011;41061;52.822;6.860;2024-03-02T01:01:40;4.32;;;3.20;;
55172;SDS011;41061;52.822;6.860;2024-03-02T01:04:08;5.43;;;3.00;;
55172;SDS011;41061;52.822;6.860;2024-03-02T01:06:34;6.00;;;3.53;;
55172;SDS011;41061;52.822;6.860;2024-03-02T01:09:01;5.78;;;3.75;;
55172;SDS011;41061;52.822;6.860;2024-03-02T01:11:27;5.32;;;3.15;;
55172;SDS011;41061;52.822;6.860;2024-03-02T01:13:54;6.65;;;3.08;;
55172;SDS011;41061;52.822;6.860;2024-03-02T01:16:20;6.25;;;3.17;;
55172;SDS011;41061;52.822;6.860;2024-03-02T01:18:46;4.88;;;3.25;;
55172;SDS011;41061;52.822;6.860;2024-03-02T01:21:12;8.35;;;3.42;;
55172;SDS011;41061;52.822;6.860;2024-03-02T01:23:38;4.68;;;2.75;;
55172;SDS011;41061;52.822;6.860;2024-03-02T01:26:04;7.25;;;3.05;;
55172;SDS011;41061;52.822;6.860;2024-03-02T01:28:30;5.15;;;3.03;;
55172;SDS011;41061;52.822;6.860;2024-03-02T01:30:56;4.60;;;2.58;;
55172;SDS011;41061;52.822;6.860;2024-03-02T01:33:22;5.20;;;2.90;;
55172;SDS011;41061;52.822;6.860;2024-03-02T01:35:48;6.55;;;3.10;;
55172;SDS011;41061;52.822;6.860;2024-03-02T01:38:15;9.73;;;3.58;;
55172;SDS011;41061;52.822;6.860;2024-03-02T01:40:41;4.47;;;3.45;;
55172;SDS011;41061;52.822;6.860;2024-03-02T01:43:09;4.25;;;3.03;;
55172;SDS011;41061;52.822;6.860;2024-03-02T01:45:35;10.38;;;3.42;;
55172;SDS011;41061;52.822;6.860;2024-03-02T01:48:03;6.38;;;3.28;;
55172;SDS011;41061;52.822;6.860;2024-03-02T01:50:32;4.13;;;3.03;;
55172;SDS011;41061;52.822;6.860;2024-03-02T01:52:59;5.03;;;3.40;;
55172;SDS011;41061;52.822;6.860;2024-03-02T01:55:25;5.40;;;3.33;;
55172;SDS011;41061;52.822;6.860;2024-03-02T01:57:54;4.65;;;2.95;;
55172;SDS011;41061;52.822;6.860;2024-03-02T02:00:20;5.07;;;2.72;;
55172;SDS011;41061;52.822;6.860;2024-03-02T02:02:47;5.63;;;3.22;;
55172;SDS011;41061;52.822;6.860;2024-03-02T02:05:14;3.28;;;2.75;;
55172;SDS011;41061;52.822;6.860;2024-03-02T02:07:40;5.50;;;2.60;;
55172;SDS011;41061;52.822;6.860;2024-03-02T02:10:07;4.82;;;3.13;;
55172;SDS011;41061;52.822;6.860;2024-03-02T02:12:33;4.90;;;3.58;;
55172;SDS011;41061;52.822;6.860;2024-03-02T02:15:00;4.15;;;2.92;;
55172;SDS011;41061;52.822;6.860;2024-03-02T02:17:26;4.35;;;2.70;;
55172;SDS011;41061;52.822;6.860;2024-03-02T02:19:52;4.47;;;2.65;;
55172;SDS011;41061;52.822;6.860;2024-03-02T02:22:18;4.20;;;2.30;;
55172;SDS011;41061;52.822;6.860;2024-03-02T02:24:44;5.35;;;2.95;;
55172;SDS011;41061;52.822;6.860;2024-03-02T02:27:10;5.72;;;3.15;;
55172;SDS011;41061;52.822;6.860;2024-03-02T02:29:40;4.47;;;3.03;;
55172;SDS011;41061;52.822;6.860;2024-03-02T02:32:06;4.35;;;2.75;;
55172;SDS011;41061;52.822;6.860;2024-03-02T02:34:32;5.13;;;2.97;;
55172;SDS011;41061;52.822;6.860;2024-03-02T02:36:58;3.47;;;2.63;;
55172;SDS011;41061;52.822;6.860;2024-03-02T02:39:24;4.82;;;2.92;;
55172;SDS011;41061;52.822;6.860;2024-03-02T02:41:50;4.90;;;2.85;;
55172;SDS011;41061;52.822;6.860;2024-03-02T02:44:17;5.55;;;2.78;;
55172;SDS011;41061;52.822;6.860;2024-03-02T02:46:43;6.55;;;3.00;;
55172;SDS011;41061;52.822;6.860;2024-03-02T02:49:09;7.10;;;2.55;;
55172;SDS011;41061;52.822;6.860;2024-03-02T02:51:35;3.70;;;2.80;;
55172;SDS011;41061;52.822;6.860;2024-03-02T02:54:01;3.58;;;2.75;;
55172;SDS011;41061;52.822;6.860;2024-03-02T02:56:27;4.53;;;2.78;;
55172;SDS011;41061;52.822;6.860;2024-03-02T02:58:53;5.45;;;2.65;;
55172;SDS011;41061;52.822;6.860;2024-03-02T03:01:19;5.43;;;2.50;;
55172;SDS011;41061;52.822;6.860;2024-03-02T03:03:46;4.85;;;2.67;;
55172;SDS011;41061;52.822;6.860;2024-03-02T03:06:12;3.00;;;2.25;;
55172;SDS011;41061;52.822;6.860;2024-03-02T03:08:38;7.32;;;2.53;;
55172;SDS011;41061;52.822;6.860;2024-03-02T03:11:04;4.03;;;2.30;;
55172;SDS011;41061;52.822;6.860;2024-03-02T03:13:31;3.28;;;2.22;;
55172;SDS011;41061;52.822;6.860;2024-03-02T03:15:57;4.28;;;2.47;;
55172;SDS011;41061;52.822;6.860;2024-03-02T03:18:23;11.82;;;3.83;;
55172;SDS011;41061;52.822;6.860;2024-03-02T03:20:49;3.53;;;2.17;;
55172;SDS011;41061;52.822;6.860;2024-03-02T03:23:16;2.97;;;2.33;;
55172;SDS011;41061;52.822;6.860;2024-03-02T03:25:44;3.38;;;2.20;;
55172;SDS011;41061;52.822;6.860;2024-03-02T03:28:10;4.05;;;2.42;;
55172;SDS011;41061;52.822;6.860;2024-03-02T03:30:37;2.22;;;1.67;;
55172;SDS011;41061;52.822;6.860;2024-03-02T03:33:03;2.88;;;1.83;;
55172;SDS011;41061;52.822;6.860;2024-03-02T03:35:33;4.15;;;2.10;;
55172;SDS011;41061;52.822;6.860;2024-03-02T03:37:59;4.57;;;2.30;;
55172;SDS011;41061;52.822;6.860;2024-03-02T03:40:26;4.28;;;2.40;;
55172;SDS011;41061;52.822;6.860;2024-03-02T03:42:52;3.88;;;2.40;;
55172;SDS011;41061;52.822;6.860;2024-03-02T03:45:18;4.38;;;2.33;;
55172;SDS011;41061;52.822;6.860;2024-03-02T03:47:45;6.07;;;2.22;;
55172;SDS011;41061;52.822;6.860;2024-03-02T03:50:11;4.57;;;2.38;;
55172;SDS011;41061;52.822;6.860;2024-03-02T03:52:37;3.50;;;2.13;;
55172;SDS011;41061;52.822;6.860;2024-03-02T03:55:03;4.30;;;2.53;;
55172;SDS011;41061;52.822;6.860;2024-03-02T03:57:32;3.45;;;2.50;;
55172;SDS011;41061;52.822;6.860;2024-03-02T03:59:58;3.70;;;2.35;;
55172;SDS011;41061;52.822;6.860;2024-03-02T04:02:25;3.90;;;2.58;;
55172;SDS011;41061;52.822;6.860;2024-03-02T04:04:51;4.25;;;2.20;;
55172;SDS011;41061;52.822;6.860;2024-03-02T04:07:17;4.25;;;2.40;;
55172;SDS011;41061;52.822;6.860;2024-03-02T04:09:43;5.47;;;2.22;;
55172;SDS011;41061;52.822;6.860;2024-03-02T04:12:09;3.75;;;2.10;;
55172;SDS011;41061;52.822;6.860;2024-03-02T04:14:38;4.72;;;2.78;;
55172;SDS011;41061;52.822;6.860;2024-03-02T04:17:04;5.70;;;2.40;;
55172;SDS011;41061;52.822;6.860;2024-03-02T04:19:30;4.55;;;2.55;;
55172;SDS011;41061;52.822;6.860;2024-03-02T04:21:56;4.15;;;2.80;;
55172;SDS011;41061;52.822;6.860;2024-03-02T04:24:22;4.15;;;2.38;;
55172;SDS011;41061;52.822;6.860;2024-03-02T04:26:48;4.63;;;2.72;;
55172;SDS011;41061;52.822;6.860;2024-03-02T04:29:14;3.83;;;2.42;;
55172;SDS011;41061;52.822;6.860;2024-03-02T04:31:40;6.10;;;3.72;;
55172;SDS011;41061;52.822;6.860;2024-03-02T04:34:06;3.67;;;2.25;;
55172;SDS011;41061;52.822;6.860;2024-03-02T04:36:33;5.43;;;2.97;;
55172;SDS011;41061;52.822;6.860;2024-03-02T04:38:59;6.80;;;3.00;;
55172;SDS011;41061;52.822;6.860;2024-03-02T04:41:25;5.57;;;2.72;;
55172;SDS011;41061;52.822;6.860;2024-03-02T04:43:51;4.60;;;2.55;;
55172;SDS011;41061;52.822;6.860;2024-03-02T04:46:17;3.85;;;2.97;;
55172;SDS011;41061;52.822;6.860;2024-03-02T04:48:43;6.10;;;2.95;;
55172;SDS011;41061;52.822;6.860;2024-03-02T04:51:09;5.45;;;2.75;;
55172;SDS011;41061;52.822;6.860;2024-03-02T04:53:36;5.68;;;2.65;;
55172;SDS011;41061;52.822;6.860;2024-03-02T04:56:03;3.72;;;2.47;;
55172;SDS011;41061;52.822;6.860;2024-03-02T04:58:47;3.95;;;2.47;;
55172;SDS011;41061;52.822;6.860;2024-03-02T05:01:13;3.45;;;2.70;;
55172;SDS011;41061;52.822;6.860;2024-03-02T05:03:41;3.80;;;2.72;;
55172;SDS011;41061;52.822;6.860;2024-03-02T05:06:07;3.80;;;2.90;;
55172;SDS011;41061;52.822;6.860;2024-03-02T05:08:33;3.95;;;3.00;;
55172;SDS011;41061;52.822;6.860;2024-03-02T05:11:00;4.10;;;2.40;;
55172;SDS011;41061;52.822;6.860;2024-03-02T05:13:46;6.18;;;2.83;;
55172;SDS011;41061;52.822;6.860;2024-03-02T05:16:12;3.70;;;2.90;;
55172;SDS011;41061;52.822;6.860;2024-03-02T05:18:38;4.60;;;2.70;;
55172;SDS011;41061;52.822;6.860;2024-03-02T05:21:04;5.88;;;2.97;;
55172;SDS011;41061;52.822;6.860;2024-03-02T05:23:31;3.47;;;2.60;;
55172;SDS011;41061;52.822;6.860;2024-03-02T05:25:57;5.13;;;2.97;;
55172;SDS011;41061;52.822;6.860;2024-03-02T05:28:23;8.45;;;3.20;;
55172;SDS011;41061;52.822;6.860;2024-03-02T05:30:49;4.28;;;2.65;;
55172;SDS011;41061;52.822;6.860;2024-03-02T05:33:15;6.82;;;3.08;;
55172;SDS011;41061;52.822;6.860;2024-03-02T05:35:41;5.57;;;3.53;;
55172;SDS011;41061;52.822;6.860;2024-03-02T05:38:07;5.63;;;3.20;;
55172;SDS011;41061;52.822;6.860;2024-03-02T05:40:34;6.68;;;3.17;;
55172;SDS011;41061;52.822;6.860;2024-03-02T05:43:00;7.03;;;3.30;;
55172;SDS011;41061;52.822;6.860;2024-03-02T05:45:26;7.70;;;3.25;;
55172;SDS011;41061;52.822;6.860;2024-03-02T05:47:52;4.82;;;2.88;;
55172;SDS011;41061;52.822;6.860;2024-03-02T05:50:18;5.00;;;3.30;;
55172;SDS011;41061;52.822;6.860;2024-03-02T05:52:45;4.93;;;3.50;;
55172;SDS011;41061;52.822;6.860;2024-03-02T05:55:11;5.28;;;3.33;;
55172;SDS011;41061;52.822;6.860;2024-03-02T05:57:37;5.90;;;3.33;;
55172;SDS011;41061;52.822;6.860;2024-03-02T06:00:10;5.68;;;2.92;;
55172;SDS011;41061;52.822;6.860;2024-03-02T06:02:39;9.32;;;3.05;;
55172;SDS011;41061;52.822;6.860;2024-03-02T06:05:05;5.00;;;2.90;;
55172;SDS011;41061;52.822;6.860;2024-03-02T06:07:34;5.53;;;3.00;;
55172;SDS011;41061;52.822;6.860;2024-03-02T06:10:00;5.60;;;3.08;;
55172;SDS011;41061;52.822;6.860;2024-03-02T06:12:26;5.03;;;2.80;;
55172;SDS011;41061;52.822;6.860;2024-03-02T06:14:52;3.92;;;2.90;;
55172;SDS011;41061;52.822;6.860;2024-03-02T06:17:18;4.90;;;2.78;;
55172;SDS011;41061;52.822;6.860;2024-03-02T06:19:45;5.45;;;3.20;;
55172;SDS011;41061;52.822;6.860;2024-03-02T06:22:11;4.85;;;3.15;;
55172;SDS011;41061;52.822;6.860;2024-03-02T06:24:37;3.92;;;3.20;;
55172;SDS011;41061;52.822;6.860;2024-03-02T06:27:03;4.65;;;2.92;;
55172;SDS011;41061;52.822;6.860;2024-03-02T06:29:32;3.58;;;2.97;;
55172;SDS011;41061;52.822;6.860;2024-03-02T06:31:58;4.65;;;3.22;;
55172;SDS011;41061;52.822;6.860;2024-03-02T06:34:25;4.85;;;3.13;;
55172;SDS011;41061;52.822;6.860;2024-03-02T06:36:51;7.18;;;3.20;;
55172;SDS011;41061;52.822;6.860;2024-03-02T06:39:17;6.97;;;3.80;;
55172;SDS011;41061;52.822;6.860;2024-03-02T06:41:43;5.22;;;3.30;;
55172;SDS011;41061;52.822;6.860;2024-03-02T06:44:09;4.80;;;2.90;;
55172;SDS011;41061;52.822;6.860;2024-03-02T06:46:35;4.68;;;3.08;;
55172;SDS011;41061;52.822;6.860;2024-03-02T06:49:01;7.22;;;3.58;;
55172;SDS011;41061;52.822;6.860;2024-03-02T06:51:29;4.25;;;2.95;;
55172;SDS011;41061;52.822;6.860;2024-03-02T06:53:55;4.07;;;2.63;;
55172;SDS011;41061;52.822;6.860;2024-03-02T06:56:21;5.85;;;3.20;;
55172;SDS011;41061;52.822;6.860;2024-03-02T06:58:47;4.80;;;2.72;;
55172;SDS011;41061;52.822;6.860;2024-03-02T07:01:13;6.07;;;3.15;;
55172;SDS011;41061;52.822;6.860;2024-03-02T07:03:39;3.70;;;3.03;;
55172;SDS011;41061;52.822;6.860;2024-03-02T07:06:06;6.28;;;2.90;;
55172;SDS011;41061;52.822;6.860;2024-03-02T07:08:32;7.90;;;3.10;;
55172;SDS011;41061;52.822;6.860;2024-03-02T07:10:58;4.80;;;3.35;;
55172;SDS011;41061;52.822;6.860;2024-03-02T07:13:24;6.70;;;3.33;;
55172;SDS011;41061;52.822;6.860;2024-03-02T07:15:50;5.28;;;3.45;;
55172;SDS011;41061;52.822;6.860;2024-03-02T07:18:31;5.95;;;3.50;;
55172;SDS011;41061;52.822;6.860;2024-03-02T07:20:58;8.18;;;5.15;;
55172;SDS011;41061;52.822;6.860;2024-03-02T07:23:26;7.82;;;3.70;;
55172;SDS011;41061;52.822;6.860;2024-03-02T07:25:55;5.63;;;3.20;;
55172;SDS011;41061;52.822;6.860;2024-03-02T07:28:24;6.30;;;3.80;;
55172;SDS011;41061;52.822;6.860;2024-03-02T07:31:00;4.50;;;3.35;;
55172;SDS011;41061;52.822;6.860;2024-03-02T07:33:26;6.07;;;3.50;;
55172;SDS011;41061;52.822;6.860;2024-03-02T07:35:53;6.55;;;3.65;;
55172;SDS011;41061;52.822;6.860;2024-03-02T07:38:20;5.68;;;3.47;;
55172;SDS011;41061;52.822;6.860;2024-03-02T07:40:46;4.88;;;3.53;;
55172;SDS011;41061;52.822;6.860;2024-03-02T07:43:15;8.40;;;4.00;;
55172;SDS011;41061;52.822;6.860;2024-03-02T07:45:42;5.60;;;3.30;;
55172;SDS011;41061;52.822;6.860;2024-03-02T07:48:08;6.07;;;3.95;;
55172;SDS011;41061;52.822;6.860;2024-03-02T07:50:34;6.35;;;3.88;;
55172;SDS011;41061;52.822;6.860;2024-03-02T07:53:00;5.35;;;3.47;;
55172;SDS011;41061;52.822;6.860;2024-03-02T07:55:27;9.57;;;4.43;;
55172;SDS011;41061;52.822;6.860;2024-03-02T07:57:53;5.20;;;3.50;;
55172;SDS011;41061;52.822;6.860;2024-03-02T08:00:19;6.38;;;3.63;;
55172;SDS011;41061;52.822;6.860;2024-03-02T08:02:45;6.47;;;3.38;;
55172;SDS011;41061;52.822;6.860;2024-03-02T08:05:11;6.22;;;3.10;;
55172;SDS011;41061;52.822;6.860;2024-03-02T08:07:37;6.38;;;2.85;;
55172;SDS011;41061;52.822;6.860;2024-03-02T08:10:04;5.55;;;3.00;;
55172;SDS011;41061;52.822;6.860;2024-03-02T08:12:30;6.05;;;2.50;;
55172;SDS011;41061;52.822;6.860;2024-03-02T08:14:56;4.82;;;2.80;;
55172;SDS011;41061;52.822;6.860;2024-03-02T08:17:22;5.68;;;3.20;;
55172;SDS011;41061;52.822;6.860;2024-03-02T08:19:48;5.95;;;2.85;;
55172;SDS011;41061;52.822;6.860;2024-03-02T08:22:14;4.00;;;2.80;;
55172;SDS011;41061;52.822;6.860;2024-03-02T08:24:41;4.90;;;2.90;;
55172;SDS011;41061;52.822;6.860;2024-03-02T08:27:07;6.88;;;2.78;;
55172;SDS011;41061;52.822;6.860;2024-03-02T08:29:34;6.22;;;3.25;;
55172;SDS011;41061;52.822;6.860;2024-03-02T08:32:00;6.97;;;3.58;;
55172;SDS011;41061;52.822;6.860;2024-03-02T08:34:26;6.35;;;3.05;;
55172;SDS011;41061;52.822;6.860;2024-03-02T08:36:52;4.93;;;2.95;;
55172;SDS011;41061;52.822;6.860;2024-03-02T08:39:18;6.00;;;3.40;;
55172;SDS011;41061;52.822;6.860;2024-03-02T08:41:45;4.00;;;2.85;;
55172;SDS011;41061;52.822;6.860;2024-03-02T08:44:11;7.22;;;3.30;;
55172;SDS011;41061;52.822;6.860;2024-03-02T08:46:40;5.43;;;2.72;;
55172;SDS011;41061;52.822;6.860;2024-03-02T08:49:07;4.65;;;2.90;;
55172;SDS011;41061;52.822;6.860;2024-03-02T08:51:33;4.38;;;2.72;;
55172;SDS011;41061;52.822;6.860;2024-03-02T08:53:59;6.22;;;2.30;;
55172;SDS011;41061;52.822;6.860;2024-03-02T08:56:25;5.53;;;2.55;;
55172;SDS011;41061;52.822;6.860;2024-03-02T08:58:51;6.40;;;2.35;;
55172;SDS011;41061;52.822;6.860;2024-03-02T09:01:18;3.67;;;2.33;;
55172;SDS011;41061;52.822;6.860;2024-03-02T09:03:47;4.40;;;2.53;;
55172;SDS011;41061;52.822;6.860;2024-03-02T09:06:14;3.65;;;2.40;;
55172;SDS011;41061;52.822;6.860;2024-03-02T09:08:47;2.80;;;1.73;;
55172;SDS011;41061;52.822;6.860;2024-03-02T09:11:14;3.83;;;1.73;;
55172;SDS011;41061;52.822;6.860;2024-03-02T09:13:40;4.47;;;1.90;;
55172;SDS011;41061;52.822;6.860;2024-03-02T09:16:07;3.08;;;1.67;;
55172;SDS011;41061;52.822;6.860;2024-03-02T09:18:36;2.67;;;1.60;;
55172;SDS011;41061;52.822;6.860;2024-03-02T09:21:01;3.05;;;1.77;;
55172;SDS011;41061;52.822;6.860;2024-03-02T09:23:27;2.75;;;1.85;;
55172;SDS011;41061;52.822;6.860;2024-03-02T09:25:53;3.65;;;1.80;;
55172;SDS011;41061;52.822;6.860;2024-03-02T09:28:18;3.15;;;1.77;;
55172;SDS011;41061;52.822;6.860;2024-03-02T09:30:44;3.22;;;1.92;;
55172;SDS011;41061;52.822;6.860;2024-03-02T09:33:10;5.28;;;1.90;;
55172;SDS011;41061;52.822;6.860;2024-03-02T09:35:35;4.88;;;2.15;;
55172;SDS011;41061;52.822;6.860;2024-03-02T09:38:01;3.95;;;1.88;;
55172;SDS011;41061;52.822;6.860;2024-03-02T09:40:28;4.22;;;1.75;;
55172;SDS011;41061;52.822;6.860;2024-03-02T09:42:54;4.32;;;1.90;;
55172;SDS011;41061;52.822;6.860;2024-03-02T09:45:24;2.58;;;1.60;;
55172;SDS011;41061;52.822;6.860;2024-03-02T09:47:50;11.27;;;3.35;;
55172;SDS011;41061;52.822;6.860;2024-03-02T09:50:16;3.97;;;2.00;;
55172;SDS011;41061;52.822;6.860;2024-03-02T09:52:42;4.22;;;1.90;;
55172;SDS011;41061;52.822;6.860;2024-03-02T09:55:08;3.92;;;1.67;;
55172;SDS011;41061;52.822;6.860;2024-03-02T09:57:34;2.70;;;1.70;;
55172;SDS011;41061;52.822;6.860;2024-03-02T10:00:00;3.25;;;1.50;;
55172;SDS011;41061;52.822;6.860;2024-03-02T10:02:26;7.50;;;2.05;;
55172;SDS011;41061;52.822;6.860;2024-03-02T10:04:52;2.88;;;1.80;;
55172;SDS011;41061;52.822;6.860;2024-03-02T10:07:18;2.78;;;2.22;;
55172;SDS011;41061;52.822;6.860;2024-03-02T10:09:45;3.83;;;2.20;;
55172;SDS011;41061;52.822;6.860;2024-03-02T10:12:12;4.43;;;2.65;;
55172;SDS011;41061;52.822;6.860;2024-03-02T10:14:39;6.13;;;2.45;;
55172;SDS011;41061;52.822;6.860;2024-03-02T10:17:06;4.45;;;2.42;;
55172;SDS011;41061;52.822;6.860;2024-03-02T10:19:34;7.22;;;3.33;;
55172;SDS011;41061;52.822;6.860;2024-03-02T10:22:00;4.40;;;2.45;;
55172;SDS011;41061;52.822;6.860;2024-03-02T10:24:28;4.78;;;2.40;;
55172;SDS011;41061;52.822;6.860;2024-03-02T10:29:52;7.13;;;3.40;;
55172;SDS011;41061;52.822;6.860;2024-03-02T10:32:18;4.55;;;2.72;;
55172;SDS011;41061;52.822;6.860;2024-03-02T10:34:48;6.30;;;2.40;;
55172;SDS011;41061;52.822;6.860;2024-03-02T10:37:15;6.63;;;2.10;;
55172;SDS011;41061;52.822;6.860;2024-03-02T10:39:42;4.90;;;2.20;;
55172;SDS011;41061;52.822;6.860;2024-03-02T10:42:08;6.68;;;1.90;;
55172;SDS011;41061;52.822;6.860;2024-03-02T10:44:34;5.57;;;2.05;;
55172;SDS011;41061;52.822;6.860;2024-03-02T10:47:03;5.88;;;2.28;;
55172;SDS011;41061;52.822;6.860;2024-03-02T10:49:30;3.08;;;1.63;;
55172;SDS011;41061;52.822;6.860;2024-03-02T10:51:57;4.35;;;2.00;;
55172;SDS011;41061;52.822;6.860;2024-03-02T10:54:24;3.78;;;1.60;;
55172;SDS011;41061;52.822;6.860;2024-03-02T10:56:55;5.82;;;1.90;;
55172;SDS011;41061;52.822;6.860;2024-03-02T10:59:28;4.93;;;2.10;;
55172;SDS011;41061;52.822;6.860;2024-03-02T11:01:57;3.65;;;1.73;;
55172;SDS011;41061;52.822;6.860;2024-03-02T11:04:25;4.38;;;1.98;;
55172;SDS011;41061;52.822;6.860;2024-03-02T11:09:33;5.88;;;2.47;;
55172;SDS011;41061;52.822;6.860;2024-03-02T11:14:41;6.13;;;1.90;;
55172;SDS011;41061;52.822;6.860;2024-03-02T11:17:08;4.20;;;1.85;;
55172;SDS011;41061;52.822;6.860;2024-03-02T11:19:35;3.95;;;1.70;;
55172;SDS011;41061;52.822;6.860;2024-03-02T11:22:03;3.90;;;1.98;;
55172;SDS011;41061;52.822;6.860;2024-03-02T11:24:30;5.93;;;2.20;;
55172;SDS011;41061;52.822;6.860;2024-03-02T11:27:00;6.82;;;1.90;;
55172;SDS011;41061;52.822;6.860;2024-03-02T11:32:26;3.70;;;2.50;;
55172;SDS011;41061;52.822;6.860;2024-03-02T11:34:51;4.68;;;2.08;;
55172;SDS011;41061;52.822;6.860;2024-03-02T11:37:17;2.90;;;2.03;;
55172;SDS011;41061;52.822;6.860;2024-03-02T11:39:45;7.72;;;2.35;;
55172;SDS011;41061;52.822;6.860;2024-03-02T11:42:14;4.00;;;2.17;;
55172;SDS011;41061;52.822;6.860;2024-03-02T11:44:50;4.45;;;2.45;;
55172;SDS011;41061;52.822;6.860;2024-03-02T11:47:16;6.47;;;2.38;;
55172;SDS011;41061;52.822;6.860;2024-03-02T11:49:46;3.15;;;1.90;;
55172;SDS011;41061;52.822;6.860;2024-03-02T11:52:15;5.15;;;2.20;;
55172;SDS011;41061;52.822;6.860;2024-03-02T11:54:43;5.75;;;2.70;;
55172;SDS011;41061;52.822;6.860;2024-03-02T11:57:18;3.40;;;2.05;;
55172;SDS011;41061;52.822;6.860;2024-03-02T11:59:45;4.28;;;2.10;;
55172;SDS011;41061;52.822;6.860;2024-03-02T12:02:30;4.75;;;2.00;;
55172;SDS011;41061;52.822;6.860;2024-03-02T12:04:56;4.13;;;1.75;;
55172;SDS011;41061;52.822;6.860;2024-03-02T12:07:22;2.75;;;1.80;;
55172;SDS011;41061;52.822;6.860;2024-03-02T12:09:49;3.90;;;2.00;;
55172;SDS011;41061;52.822;6.860;2024-03-02T12:14:51;4.15;;;1.73;;
55172;SDS011;41061;52.822;6.860;2024-03-02T12:17:20;4.65;;;1.90;;
55172;SDS011;41061;52.822;6.860;2024-03-02T12:19:47;3.78;;;1.70;;
55172;SDS011;41061;52.822;6.860;2024-03-02T12:22:12;3.50;;;1.50;;
55172;SDS011;41061;52.822;6.860;2024-03-02T12:24:38;5.78;;;1.88;;
55172;SDS011;41061;52.822;6.860;2024-03-02T12:27:05;4.60;;;1.80;;
55172;SDS011;41061;52.822;6.860;2024-03-02T12:29:32;2.75;;;1.50;;
55172;SDS011;41061;52.822;6.860;2024-03-02T12:31:59;4.10;;;1.30;;
55172;SDS011;41061;52.822;6.860;2024-03-02T12:34:26;3.00;;;1.48;;
55172;SDS011;41061;52.822;6.860;2024-03-02T12:36:53;3.17;;;1.50;;
55172;SDS011;41061;52.822;6.860;2024-03-02T12:39:19;2.38;;;1.48;;
55172;SDS011;41061;52.822;6.860;2024-03-02T12:41:46;7.93;;;1.85;;
55172;SDS011;41061;52.822;6.860;2024-03-02T12:44:12;2.55;;;1.70;;
55172;SDS011;41061;52.822;6.860;2024-03-02T12:46:37;5.30;;;1.42;;
55172;SDS011;41061;52.822;6.860;2024-03-02T12:49:10;6.60;;;1.83;;
55172;SDS011;41061;52.822;6.860;2024-03-02T12:51:37;3.05;;;1.40;;
55172;SDS011;41061;52.822;6.860;2024-03-02T12:54:05;3.13;;;1.30;;
55172;SDS011;41061;52.822;6.860;2024-03-02T12:56:31;2.78;;;1.30;;
55172;SDS011;41061;52.822;6.860;2024-03-02T12:58:58;3.67;;;1.38;;
55172;SDS011;41061;52.822;6.860;2024-03-02T13:01:24;2.20;;;1.55;;
55172;SDS011;41061;52.822;6.860;2024-03-02T13:03:51;2.35;;;1.50;;
55172;SDS011;41061;52.822;6.860;2024-03-02T13:06:18;3.88;;;1.65;;
55172;SDS011;41061;52.822;6.860;2024-03-02T13:08:45;3.08;;;1.05;;
55172;SDS011;41061;52.822;6.860;2024-03-02T13:11:11;3.85;;;1.33;;
55172;SDS011;41061;52.822;6.860;2024-03-02T13:13:38;6.13;;;1.38;;
55172;SDS011;41061;52.822;6.860;2024-03-02T13:16:11;2.67;;;1.33;;
55172;SDS011;41061;52.822;6.860;2024-03-02T13:18:40;2.65;;;1.42;;
55172;SDS011;41061;52.822;6.860;2024-03-02T13:21:07;2.10;;;1.20;;
55172;SDS011;41061;52.822;6.860;2024-03-02T13:23:33;8.90;;;1.20;;
55172;SDS011;41061;52.822;6.860;2024-03-02T13:25:59;3.80;;;1.20;;
55172;SDS011;41061;52.822;6.860;2024-03-02T13:28:25;4.57;;;1.25;;
55172;SDS011;41061;52.822;6.860;2024-03-02T13:30:51;2.15;;;1.05;;
55172;SDS011;41061;52.822;6.860;2024-03-02T13:33:16;5.05;;;1.02;;
55172;SDS011;41061;52.822;6.860;2024-03-02T13:35:47;2.45;;;1.02;;
55172;SDS011;41061;52.822;6.860;2024-03-02T13:38:15;3.45;;;1.15;;
55172;SDS011;41061;52.822;6.860;2024-03-02T13:40:42;2.85;;;0.90;;
55172;SDS011;41061;52.822;6.860;2024-03-02T13:43:08;2.15;;;0.88;;
55172;SDS011;41061;52.822;6.860;2024-03-02T13:45:33;2.35;;;1.02;;
55172;SDS011;41061;52.822;6.860;2024-03-02T13:48:00;2.80;;;1.17;;
55172;SDS011;41061;52.822;6.860;2024-03-02T13:50:26;3.03;;;1.10;;
55172;SDS011;41061;52.822;6.860;2024-03-02T13:52:52;1.77;;;1.20;;
55172;SDS011;41061;52.822;6.860;2024-03-02T13:55:18;4.50;;;1.20;;
55172;SDS011;41061;52.822;6.860;2024-03-02T13:57:43;7.63;;;1.65;;
55172;SDS011;41061;52.822;6.860;2024-03-02T14:00:09;4.60;;;1.35;;
55172;SDS011;41061;52.822;6.860;2024-03-02T14:02:37;1.80;;;1.40;;
55172;SDS011;41061;52.822;6.860;2024-03-02T14:05:03;4.68;;;1.50;;
55172;SDS011;41061;52.822;6.860;2024-03-02T14:07:29;2.53;;;1.42;;
55172;SDS011;41061;52.822;6.860;2024-03-02T14:09:55;2.35;;;1.40;;
55172;SDS011;41061;52.822;6.860;2024-03-02T14:12:20;6.25;;;1.90;;
55172;SDS011;41061;52.822;6.860;2024-03-02T14:14:47;5.53;;;1.77;;
55172;SDS011;41061;52.822;6.860;2024-03-02T14:17:16;2.78;;;1.40;;
55172;SDS011;41061;52.822;6.860;2024-03-02T14:19:42;6.15;;;1.70;;
55172;SDS011;41061;52.822;6.860;2024-03-02T14:22:07;6.22;;;1.60;;
55172;SDS011;41061;52.822;6.860;2024-03-02T14:24:33;5.15;;;1.50;;
55172;SDS011;41061;52.822;6.860;2024-03-02T14:26:58;2.70;;;1.60;;
55172;SDS011;41061;52.822;6.860;2024-03-02T14:29:27;2.88;;;1.60;;
55172;SDS011;41061;52.822;6.860;2024-03-02T14:31:52;2.45;;;1.35;;
55172;SDS011;41061;52.822;6.860;2024-03-02T14:34:18;3.00;;;1.60;;
55172;SDS011;41061;52.822;6.860;2024-03-02T14:36:44;3.40;;;1.63;;
55172;SDS011;41061;52.822;6.860;2024-03-02T14:39:10;2.50;;;1.50;;
55172;SDS011;41061;52.822;6.860;2024-03-02T14:41:36;3.80;;;1.90;;
55172;SDS011;41061;52.822;6.860;2024-03-02T14:44:02;4.47;;;1.85;;
55172;SDS011;41061;52.822;6.860;2024-03-02T14:46:28;2.50;;;1.80;;
55172;SDS011;41061;52.822;6.860;2024-03-02T14:48:55;6.88;;;2.00;;
55172;SDS011;41061;52.822;6.860;2024-03-02T14:51:21;4.15;;;1.85;;
55172;SDS011;41061;52.822;6.860;2024-03-02T14:53:46;6.22;;;1.80;;
55172;SDS011;41061;52.822;6.860;2024-03-02T14:56:12;5.47;;;2.20;;
55172;SDS011;41061;52.822;6.860;2024-03-02T14:58:39;4.63;;;1.73;;